Time;durP1;ratioP1;P1;durP2;ratioP2;P2;SDS_P1;SDS_P2;PMS_P1;PMS_P2;Temp;Humidity;BMP_temperature;BMP_pressure;BME280_temperature;BME280_humidity;BME280_pressure;Samples;Min_cycle;Max_cycle;Signal;HPM_P1;HPM_P2
2023/12/26 00:00:48;;;;;;;43.13;16.73;;;;;;;6.14;100.00;97480.72;5127491;28;20027;-71
2023/12/26 00:03:14;;;;;;;43.25;16.05;;;;;;;6.07;100.00;97468.66;5129361;27;20114;-71
2023/12/26 00:05:40;;;;;;;35.08;15.23;;;;;;;6.04;100.00;97484.72;5133537;27;20026;-72
2023/12/26 00:08:07;;;;;;;35.50;15.98;;;;;;;6.04;100.00;97495.34;5132031;27;20486;-71
2023/12/26 00:10:33;;;;;;;57.15;23.08;;;;;;;6.07;100.00;97505.81;5130282;27;20045;-72
2023/12/26 00:13:03;;;;;;;49.63;22.38;;;;;;;6.04;100.00;97506.81;5129840;27;20023;-72
2023/12/26 00:15:30;;;;;;;54.47;24.45;;;;;;;5.94;100.00;97510.81;5130053;27;20027;-72
2023/12/26 00:17:55;;;;;;;53.90;23.15;;;;;;;5.94;100.00;97522.28;5130506;27;20083;-72
2023/12/26 00:20:21;;;;;;;56.30;22.08;;;;;;;5.88;100.00;97514.59;5135161;27;20026;-72
2023/12/26 00:22:46;;;;;;;54.22;22.38;;;;;;;5.95;100.00;97518.72;5134196;27;20027;-72
2023/12/26 00:25:12;;;;;;;62.92;24.27;;;;;;;5.93;100.00;97527.69;5133683;27;20031;-72
2023/12/26 00:27:39;;;;;;;55.50;21.90;;;;;;;5.93;100.00;97533.88;5137704;27;20029;-71
2023/12/26 00:30:07;;;;;;;45.53;19.00;;;;;;;5.88;100.00;97525.22;5155927;27;20180;-71
2023/12/26 00:32:33;;;;;;;35.25;16.33;;;;;;;5.71;100.00;97505.63;5114785;27;20030;-72
2023/12/26 00:34:59;;;;;;;32.45;14.25;;;;;;;5.73;100.00;97512.59;5155465;27;20022;-71
2023/12/26 00:37:24;;;;;;;37.42;14.38;;;;;;;5.78;100.00;97518.53;5137342;27;20030;-72
2023/12/26 00:39:50;;;;;;;28.02;12.80;;;;;;;5.71;100.00;97509.16;5155672;27;20018;-72
2023/12/26 00:42:16;;;;;;;24.08;12.60;;;;;;;5.74;100.00;97519.63;5155570;27;20493;-72
2023/12/26 00:44:41;;;;;;;26.48;12.75;;;;;;;5.71;100.00;97519.75;5132221;27;20029;-71
2023/12/26 00:47:07;;;;;;;29.25;12.02;;;;;;;5.76;100.00;97517.75;5154840;27;20030;-72
2023/12/26 00:49:32;;;;;;;27.58;11.95;;;;;;;5.71;100.00;97525.06;5143028;27;20494;-71
2023/12/26 00:51:58;;;;;;;27.20;12.02;;;;;;;5.67;100.00;97512.84;5134718;27;20026;-72
2023/12/26 00:54:24;;;;;;;27.95;11.75;;;;;;;5.64;100.00;97507.69;5132994;27;20030;-72
2023/12/26 00:56:49;;;;;;;25.10;12.13;;;;;;;5.49;100.00;97516.28;5133572;27;20405;-72
2023/12/26 00:59:15;;;;;;;27.27;11.90;;;;;;;5.44;100.00;97531.56;5113673;27;20031;-72
2023/12/26 01:01:40;;;;;;;32.10;11.75;;;;;;;5.47;100.00;97536.72;5131122;27;20035;-72
2023/12/26 01:04:06;;;;;;;22.42;10.18;;;;;;;5.40;100.00;97533.47;5155336;27;20023;-72
2023/12/26 01:06:32;;;;;;;18.60;8.32;;;;;;;5.30;100.00;97540.06;5119099;27;20569;-72
2023/12/26 01:08:57;;;;;;;18.17;7.90;;;;;;;5.21;100.00;97528.97;5146601;27;20057;-72
2023/12/26 01:11:23;;;;;;;20.50;8.93;;;;;;;5.25;100.00;97531.44;5136533;27;20450;-72
2023/12/26 01:13:48;;;;;;;16.55;8.50;;;;;;;5.28;100.00;97527.81;5130944;27;20051;-72
2023/12/26 01:16:16;;;;;;;21.98;8.48;;;;;;;5.25;100.00;97522.63;5155150;27;20490;-72
2023/12/26 01:18:41;;;;;;;22.23;8.65;;;;;;;5.35;100.00;97521.31;5119483;27;20023;-71
2023/12/26 01:21:08;;;;;;;16.10;7.97;;;;;;;5.37;100.00;97519.47;5134441;27;20026;-72
2023/12/26 01:23:34;;;;;;;16.77;7.63;;;;;;;5.34;100.00;97523.09;5132963;27;20106;-71
2023/12/26 01:26:00;;;;;;;17.10;8.27;;;;;;;5.28;100.00;97526.00;5135565;27;20110;-72
2023/12/26 01:28:26;;;;;;;18.50;8.77;;;;;;;5.35;100.00;97531.94;5136518;27;20030;-72
2023/12/26 01:30:51;;;;;;;20.55;9.05;;;;;;;5.33;100.00;97533.75;5135270;27;20063;-72
2023/12/26 01:33:17;;;;;;;21.42;8.43;;;;;;;5.33;100.00;97531.97;5135945;27;20023;-72
2023/12/26 01:35:43;;;;;;;22.98;9.40;;;;;;;5.36;100.00;97533.63;5154510;27;20029;-72
2023/12/26 01:38:08;;;;;;;22.42;11.35;;;;;;;5.34;100.00;97535.50;5136181;27;20521;-71
2023/12/26 01:40:34;;;;;;;24.35;12.25;;;;;;;5.30;100.00;97537.41;5154611;27;20026;-71
2023/12/26 01:43:00;;;;;;;24.50;11.52;;;;;;;5.32;100.00;97534.72;5130141;27;20062;-72
2023/12/26 01:45:25;;;;;;;28.63;12.63;;;;;;;5.33;100.00;97544.38;5154602;27;20044;-72
2023/12/26 01:47:55;;;;;;;44.35;22.50;;;;;;;5.24;100.00;97536.78;5135798;27;20404;-71
2023/12/26 01:50:22;;;;;;;32.28;16.20;;;;;;;5.17;100.00;97525.56;5130309;27;20059;-72
2023/12/26 01:52:48;;;;;;;40.88;16.30;;;;;;;5.17;100.00;97535.34;5111894;27;20023;-71
2023/12/26 01:55:14;;;;;;;36.95;15.15;;;;;;;5.21;100.00;97524.53;5134392;27;20078;-71
2023/12/26 01:57:40;;;;;;;38.58;14.38;;;;;;;5.20;100.00;97524.63;5135999;27;20067;-72
2023/12/26 02:00:07;;;;;;;32.13;13.30;;;;;;;5.24;100.00;97528.84;5154344;27;20486;-71
2023/12/26 02:02:33;;;;;;;35.42;13.30;;;;;;;5.22;100.00;97520.09;5129967;27;20026;-72
2023/12/26 02:04:59;;;;;;;36.78;14.40;;;;;;;5.23;100.00;97517.38;5133190;27;20158;-71
2023/12/26 02:07:26;;;;;;;35.67;14.50;;;;;;;5.24;100.00;97523.53;5135533;27;20039;-71
2023/12/26 02:09:52;;;;;;;33.97;14.38;;;;;;;5.17;100.00;97508.84;5133780;27;20035;-72
2023/12/26 02:12:18;;;;;;;34.58;14.43;;;;;;;5.26;100.00;97521.72;5133462;27;20406;-72
2023/12/26 02:14:44;;;;;;;35.30;15.27;;;;;;;5.18;100.00;97522.00;5131455;27;20570;-72
2023/12/26 02:17:14;;;;;;;38.95;17.67;;;;;;;5.07;100.00;97521.59;5126711;27;20034;-72
2023/12/26 02:19:42;;;;;;;40.70;18.02;;;;;;;5.07;100.00;97537.50;5132924;27;20030;-71
2023/12/26 02:22:09;;;;;;;44.90;18.10;;;;;;;5.00;100.00;97533.38;5131758;27;20124;-72
2023/12/26 02:24:34;;;;;;;42.10;18.67;;;;;;;4.93;100.00;97543.34;5135003;27;20014;-71
2023/12/26 02:27:00;;;;;;;39.00;16.15;;;;;;;4.87;100.00;97540.94;5135411;27;20079;-71
2023/12/26 02:29:26;;;;;;;49.10;13.35;;;;;;;4.76;100.00;97539.63;5135304;27;20022;-71
2023/12/26 02:31:54;;;;;;;35.40;13.27;;;;;;;4.64;100.00;97537.47;5133840;27;20075;-73
2023/12/26 02:34:20;;;;;;;28.02;12.68;;;;;;;4.51;100.00;97546.78;5117731;27;20106;-72
2023/12/26 02:36:45;;;;;;;32.72;12.82;;;;;;;4.45;100.00;97547.91;5132892;27;20097;-72
2023/12/26 02:39:11;;;;;;;32.33;12.13;;;;;;;4.43;100.00;97557.66;5111585;27;20439;-72
2023/12/26 02:41:37;;;;;;;29.13;12.45;;;;;;;4.37;100.00;97555.25;5151616;27;20410;-72
2023/12/26 02:44:03;;;;;;;38.08;13.98;;;;;;;4.39;100.00;97548.13;5115458;27;20155;-72
2023/12/26 02:46:28;;;;;;;24.20;10.80;;;;;;;4.52;100.00;97553.81;5153245;27;20018;-72
2023/12/26 02:48:54;;;;;;;38.20;16.85;;;;;;;4.50;100.00;97539.75;5153191;27;20098;-72
2023/12/26 02:51:20;;;;;;;29.60;13.98;;;;;;;4.46;100.00;97541.66;5153383;27;20489;-72
2023/12/26 02:53:45;;;;;;;28.77;13.73;;;;;;;4.45;100.00;97547.03;5134773;27;20026;-72
2023/12/26 02:56:11;;;;;;;27.92;11.75;;;;;;;4.46;100.00;97539.00;5131749;27;20023;-72
2023/12/26 02:58:36;;;;;;;36.42;13.20;;;;;;;4.42;100.00;97537.41;5134570;27;20113;-72
2023/12/26 03:01:02;;;;;;;31.10;12.02;;;;;;;4.50;100.00;97548.56;5152934;27;20455;-72
2023/12/26 03:03:28;;;;;;;22.95;10.60;;;;;;;4.47;100.00;97543.41;5134411;27;20118;-72
2023/12/26 03:05:53;;;;;;;18.70;9.13;;;;;;;4.56;100.00;97551.00;5152668;27;20039;-72
2023/12/26 03:08:19;;;;;;;23.58;9.73;;;;;;;4.43;100.00;97543.59;5131404;27;20049;-72
2023/12/26 03:10:44;;;;;;;23.48;10.60;;;;;;;4.40;100.00;97539.25;5134233;27;20018;-72
2023/12/26 03:13:10;;;;;;;19.33;9.68;;;;;;;4.36;100.00;97550.91;5134117;27;20438;-72
2023/12/26 03:15:35;;;;;;;17.77;9.50;;;;;;;4.24;100.00;97551.34;5134035;27;20129;-72
2023/12/26 03:18:01;;;;;;;21.48;8.98;;;;;;;4.25;100.00;97547.75;5134050;27;20090;-71
2023/12/26 03:20:27;;;;;;;19.60;8.38;;;;;;;4.18;100.00;97554.22;5134243;27;20059;-72
2023/12/26 03:22:53;;;;;;;19.27;8.70;;;;;;;4.02;100.00;97547.75;5131983;27;20054;-71
2023/12/26 03:25:18;;;;;;;22.83;7.55;;;;;;;4.08;100.00;97552.81;5130602;27;20063;-71
2023/12/26 03:27:44;;;;;;;19.92;8.98;;;;;;;4.15;100.00;97552.53;5130584;27;20061;-73
2023/12/26 03:30:09;;;;;;;26.52;10.10;;;;;;;4.21;100.00;97556.75;5116855;27;20031;-72
2023/12/26 03:32:35;;;;;;;20.83;9.15;;;;;;;4.16;100.00;97545.44;5134094;27;20030;-72
2023/12/26 03:35:01;;;;;;;25.48;9.68;;;;;;;4.20;100.00;97552.38;5134061;27;20102;-73
2023/12/26 03:37:27;;;;;;;23.73;9.63;;;;;;;4.19;100.00;97556.78;5124647;27;20027;-73
2023/12/26 03:39:53;;;;;;;24.35;10.18;;;;;;;4.17;100.00;97549.84;5131856;27;20542;-72
2023/12/26 03:42:18;;;;;;;23.63;10.55;;;;;;;4.13;100.00;97554.38;5132961;27;20501;-72
2023/12/26 03:44:46;;;;;;;33.22;12.65;;;;;;;4.06;100.00;97559.97;5151733;27;20015;-72
2023/12/26 03:47:12;;;;;;;23.88;11.07;;;;;;;4.04;100.00;97556.50;5152441;27;20022;-72
2023/12/26 03:49:38;;;;;;;26.50;11.77;;;;;;;4.06;100.00;97568.75;5131836;27;20394;-72
2023/12/26 03:52:04;;;;;;;27.45;11.65;;;;;;;4.07;100.00;97564.31;5115635;27;20026;-72
2023/12/26 03:54:29;;;;;;;24.70;10.93;;;;;;;4.06;100.00;97559.97;5132635;27;20027;-72
2023/12/26 03:56:55;;;;;;;22.17;10.00;;;;;;;3.91;100.00;97560.50;5131497;27;20025;-72
2023/12/26 03:59:21;;;;;;;19.00;8.57;;;;;;;3.78;100.00;97563.56;5133713;27;20101;-72
2023/12/26 04:01:46;;;;;;;17.95;8.02;;;;;;;3.75;100.00;97570.75;5130511;27;20037;-72
2023/12/26 04:04:12;;;;;;;15.20;8.30;;;;;;;3.78;100.00;97582.06;5137972;27;20027;-72
2023/12/26 04:06:38;;;;;;;16.63;7.20;;;;;;;3.79;100.00;97578.53;5133175;27;20551;-72
2023/12/26 04:09:04;;;;;;;12.88;6.90;;;;;;;3.75;100.00;97582.19;5152244;27;20087;-71
2023/12/26 04:11:32;;;;;;;23.60;8.02;;;;;;;3.74;100.00;97577.81;5116274;27;20406;-72
2023/12/26 04:13:58;;;;;;;16.38;7.38;;;;;;;3.69;100.00;97570.97;5133856;27;20452;-73
2023/12/26 04:16:23;;;;;;;16.20;7.60;;;;;;;3.68;100.00;97580.69;5133712;27;20064;-72
2023/12/26 04:18:49;;;;;;;15.95;6.90;;;;;;;3.62;100.00;97580.91;5133504;27;20022;-72
2023/12/26 04:21:15;;;;;;;16.77;7.35;;;;;;;3.57;100.00;97577.53;5133579;27;20470;-72
2023/12/26 04:23:41;;;;;;;31.90;10.77;;;;;;;3.60;100.00;97577.41;5133590;27;20056;-71
2023/12/26 04:26:07;;;;;;;24.55;10.50;;;;;;;3.63;100.00;97571.19;5137400;27;20443;-72
2023/12/26 04:28:33;;;;;;;22.80;10.07;;;;;;;3.65;100.00;97583.44;5151851;27;20049;-72
2023/12/26 04:30:59;;;;;;;30.02;11.07;;;;;;;3.59;100.00;97581.00;5148463;27;20042;-72
2023/12/26 04:33:25;;;;;;;23.00;8.57;;;;;;;3.53;100.00;97569.75;5135480;27;20026;-72
2023/12/26 04:35:51;;;;;;;23.45;10.02;;;;;;;3.56;100.00;97581.09;5137325;27;20019;-72
2023/12/26 04:38:16;;;;;;;20.88;8.32;;;;;;;3.56;100.00;97575.81;5133193;27;20026;-72
2023/12/26 04:40:42;;;;;;;25.85;8.90;;;;;;;3.59;100.00;97582.78;5136483;27;20405;-72
2023/12/26 04:43:08;;;;;;;24.40;9.45;;;;;;;3.65;100.00;97591.38;5144000;27;20027;-73
2023/12/26 04:45:38;;;;;;;19.65;8.20;;;;;;;3.64;100.00;97583.47;5116225;27;20374;-72
2023/12/26 04:48:08;;;;;;;24.08;7.50;;;;;;;3.58;100.00;97589.84;5129472;28;20049;-72
2023/12/26 04:50:36;;;;;;;19.45;7.68;;;;;;;3.60;100.00;97582.72;5129246;27;20041;-72
2023/12/26 04:53:04;;;;;;;19.83;8.30;;;;;;;3.54;100.00;97593.50;5129353;27;20091;-72
2023/12/26 04:55:31;;;;;;;19.00;7.28;;;;;;;3.56;100.00;97596.09;5121404;28;20047;-72
2023/12/26 04:57:57;;;;;;;14.82;6.15;;;;;;;3.59;100.00;97585.41;5132125;27;20079;-72
2023/12/26 05:00:22;;;;;;;22.17;7.70;;;;;;;3.65;100.00;97601.06;5110161;27;20038;-72
2023/12/26 05:02:48;;;;;;;18.00;7.60;;;;;;;3.70;100.00;97593.84;5141724;27;20018;-72
2023/12/26 05:05:14;;;;;;;23.55;7.82;;;;;;;3.67;100.00;97600.09;5132454;27;20508;-73
2023/12/26 05:07:40;;;;;;;21.10;8.07;;;;;;;3.66;100.00;97600.19;5136791;27;20035;-73
2023/12/26 05:10:06;;;;;;;20.20;9.50;;;;;;;3.65;100.00;97595.78;5134345;27;20114;-73
2023/12/26 05:12:31;;;;;;;26.23;9.77;;;;;;;3.62;100.00;97590.59;5131888;27;20391;-73
2023/12/26 05:14:57;;;;;;;32.40;11.65;;;;;;;3.52;100.00;97592.69;5136240;27;20022;-73
2023/12/26 05:17:22;;;;;;;48.78;19.08;;;;;;;3.51;100.00;97598.88;5133691;27;20034;-72
2023/12/26 05:19:48;;;;;;;51.78;17.77;;;;;;;3.57;100.00;97609.25;5155111;27;20027;-72
2023/12/26 05:22:14;;;;;;;51.53;17.15;;;;;;;3.58;100.00;97605.72;5155077;27;20026;-72
2023/12/26 05:24:40;;;;;;;34.75;13.88;;;;;;;3.59;100.00;97606.56;5136578;27;20079;-73
2023/12/26 05:27:05;;;;;;;26.73;11.07;;;;;;;3.49;100.00;97600.72;5133441;27;20395;-71
2023/12/26 05:29:31;;;;;;;34.55;12.80;;;;;;;3.48;100.00;97604.28;5130590;27;20109;-72
2023/12/26 05:31:57;;;;;;;51.63;20.02;;;;;;;3.35;100.00;97600.31;5133263;27;20061;-72
2023/12/26 05:34:23;;;;;;;38.30;16.52;;;;;;;3.29;100.00;97598.72;5154647;27;20058;-72
2023/12/26 05:36:48;;;;;;;43.90;17.83;;;;;;;3.23;100.00;97600.72;5154439;27;20027;-72
2023/12/26 05:39:14;;;;;;;40.80;17.00;;;;;;;3.24;100.00;97600.66;5154632;27;20113;-72
2023/12/26 05:41:43;;;;;;;36.88;16.10;;;;;;;3.23;100.00;97606.84;5115610;27;20039;-74
2023/12/26 05:44:08;;;;;;;30.15;15.15;;;;;;;3.17;100.00;97598.25;5135242;27;20454;-74
2023/12/26 05:46:34;;;;;;;32.42;15.15;;;;;;;3.15;100.00;97602.72;5130251;27;20056;-74
2023/12/26 05:49:00;;;;;;;42.08;17.17;;;;;;;3.11;100.00;97601.09;5117425;27;20022;-74
2023/12/26 05:51:25;;;;;;;40.83;16.55;;;;;;;3.11;100.00;97598.44;5117304;27;20023;-73
2023/12/26 05:53:51;;;;;;;35.20;15.63;;;;;;;3.06;100.00;97595.09;5129983;27;20502;-72
2023/12/26 05:56:18;;;;;;;34.92;16.00;;;;;;;3.09;100.00;97597.63;5132949;27;20097;-73
2023/12/26 05:58:44;;;;;;;40.05;15.13;;;;;;;3.07;100.00;97588.91;5130261;27;20030;-75
2023/12/26 06:01:10;;;;;;;43.60;16.35;;;;;;;3.02;100.00;97596.09;5154192;27;20393;-71
2023/12/26 06:03:37;;;;;;;190.10;81.80;;;;;;;3.09;100.00;97600.28;5135967;27;20019;-73
2023/12/26 06:06:03;;;;;;;120.30;48.55;;;;;;;3.05;100.00;97594.22;5135550;27;20039;-73
2023/12/26 06:08:29;;;;;;;56.80;22.67;;;;;;;3.04;100.00;97596.94;5130339;27;20030;-73
2023/12/26 06:10:55;;;;;;;68.50;26.33;;;;;;;3.01;100.00;97597.91;5138678;27;20027;-73
2023/12/26 06:13:21;;;;;;;73.25;29.05;;;;;;;3.10;100.00;97602.91;5115136;27;20036;-73
2023/12/26 06:15:46;;;;;;;46.08;17.95;;;;;;;3.09;100.00;97592.34;5135176;27;20030;-70
2023/12/26 06:18:13;;;;;;;61.85;18.98;;;;;;;3.23;100.00;97603.38;5132175;27;20034;-70
2023/12/26 06:20:38;;;;;;;52.90;22.13;;;;;;;3.27;100.00;97595.28;5129742;27;20151;-70
2023/12/26 06:23:04;;;;;;;65.03;27.23;;;;;;;3.29;100.00;97598.72;5153716;27;20526;-70
2023/12/26 06:25:29;;;;;;;60.72;24.52;;;;;;;3.34;100.00;97595.94;5135404;27;20023;-70
2023/12/26 06:27:55;;;;;;;52.00;22.85;;;;;;;3.39;100.00;97590.50;5153842;27;20100;-71
2023/12/26 06:30:21;;;;;;;53.55;22.98;;;;;;;3.41;100.00;97586.91;5129038;27;20105;-71
2023/12/26 06:32:47;;;;;;;60.42;25.27;;;;;;;3.49;100.00;97586.63;5135435;27;20525;-70
2023/12/26 06:35:13;;;;;;;44.97;21.58;;;;;;;3.54;100.00;97588.19;5134525;27;20031;-71
2023/12/26 06:37:39;;;;;;;48.72;22.17;;;;;;;3.64;100.00;97599.34;5117837;27;20110;-72
2023/12/26 06:40:05;;;;;;;60.05;22.75;;;;;;;3.64;100.00;97594.91;5134904;27;20058;-71
2023/12/26 06:42:30;;;;;;;57.20;25.35;;;;;;;3.66;100.00;97598.38;5134771;27;20031;-71
2023/12/26 06:44:56;;;;;;;51.67;21.90;;;;;;;3.63;100.00;97595.00;5153207;27;20019;-71
2023/12/26 06:47:22;;;;;;;41.00;18.30;;;;;;;3.53;100.00;97602.38;5152987;27;20023;-72
2023/12/26 06:49:47;;;;;;;41.88;16.20;;;;;;;3.44;100.00;97592.09;5134693;27;20054;-72
2023/12/26 06:52:14;;;;;;;69.15;28.65;;;;;;;3.88;100.00;97601.16;5153081;27;20022;-72
2023/12/26 06:54:41;;;;;;;102.82;42.75;;;;;;;4.98;100.00;97605.91;5134284;27;20027;-73
2023/12/26 06:57:08;;;;;;;89.28;41.17;;;;;;;6.61;100.00;97593.66;5134399;27;20091;-72
2023/12/26 06:59:34;;;;;;;65.18;27.45;;;;;;;7.92;100.00;97573.06;5153128;27;20029;-73
2023/12/26 07:02:00;;;;;;;72.15;36.10;;;;;;;8.80;100.00;97576.38;5117435;27;20026;-73
2023/12/26 07:04:27;;;;;;;63.35;27.00;;;;;;;8.83;100.00;97567.38;5114260;27;20026;-73
2023/12/26 07:06:52;;;;;;;63.83;29.52;;;;;;;9.24;100.00;97558.78;5133941;27;20042;-72
2023/12/26 07:09:18;;;;;;;61.20;27.40;;;;;;;10.06;100.00;97556.63;5134515;27;20037;-73
2023/12/26 07:11:44;;;;;;;60.95;27.30;;;;;;;11.04;98.00;97548.81;5129356;27;20109;-72
2023/12/26 07:14:09;;;;;;;71.57;34.47;;;;;;;11.84;86.78;97530.16;5117139;27;20145;-73
2023/12/26 07:16:35;;;;;;;71.47;36.42;;;;;;;12.50;79.94;97536.22;5152536;27;20027;-73
2023/12/26 07:19:02;;;;;;;107.28;48.92;;;;;;;12.92;75.13;97526.97;5112891;27;20030;-73
2023/12/26 07:21:28;;;;;;;103.43;48.78;;;;;;;13.33;70.23;97529.38;5131470;27;20094;-73
2023/12/26 07:23:53;;;;;;;96.00;48.95;;;;;;;13.32;69.46;97518.75;5133936;27;20101;-72
2023/12/26 07:26:21;;;;;;;99.75;47.85;;;;;;;13.71;66.82;97518.47;5115301;27;20031;-72
2023/12/26 07:28:47;;;;;;;88.22;46.35;;;;;;;14.04;64.85;97518.63;5130786;27;20019;-77
2023/12/26 07:31:25;;;;;;;86.70;45.13;;;;;;;14.12;62.82;97520.69;5129739;27;20044;-80
2023/12/26 07:33:51;;;;;;;98.25;47.88;;;;;;;14.48;62.23;97517.91;5117014;27;20397;-71
2023/12/26 07:36:17;;;;;;;87.05;44.15;;;;;;;14.48;62.97;97526.00;5129148;27;20164;-70
2023/12/26 07:38:43;;;;;;;85.47;42.85;;;;;;;14.90;59.65;97519.03;5147885;27;20474;-71
2023/12/26 07:41:10;;;;;;;90.90;46.53;;;;;;;15.70;56.83;97509.78;5125303;27;20030;-71
2023/12/26 07:43:35;;;;;;;91.22;47.08;;;;;;;16.15;54.98;97504.22;5131830;27;20030;-72
2023/12/26 07:46:01;;;;;;;87.28;44.45;;;;;;;16.32;53.42;97506.31;5133502;27;20023;-74
2023/12/26 07:48:27;;;;;;;84.80;47.22;;;;;;;16.49;53.13;97504.88;5133491;27;20023;-73
2023/12/26 07:50:52;;;;;;;79.20;41.40;;;;;;;16.21;53.62;97503.69;5129645;27;20027;-74
2023/12/26 07:53:18;;;;;;;71.10;35.40;;;;;;;16.64;53.06;97490.91;5133043;27;20490;-73
2023/12/26 07:55:44;;;;;;;51.97;28.95;;;;;;;16.77;52.27;97498.78;5139418;27;20022;-74
2023/12/26 07:58:09;;;;;;;58.35;31.80;;;;;;;16.68;52.21;97502.28;5133475;27;20015;-74
2023/12/26 08:00:35;;;;;;;79.53;36.85;;;;;;;16.50;52.83;97503.84;5128703;27;20130;-74
2023/12/26 08:03:00;;;;;;;75.25;41.58;;;;;;;16.30;52.84;97512.81;5124971;27;20097;-73
2023/12/26 08:05:26;;;;;;;70.35;37.10;;;;;;;16.54;52.57;97514.31;5133773;27;20029;-75
2023/12/26 08:07:52;;;;;;;66.07;32.72;;;;;;;16.90;52.11;97501.25;5112743;27;20039;-75
2023/12/26 08:10:18;;;;;;;67.82;33.40;;;;;;;17.44;50.29;97496.38;5129183;27;20497;-72
2023/12/26 08:12:44;;;;;;;50.97;29.52;;;;;;;17.80;48.69;97493.03;5104684;27;20030;-73
2023/12/26 08:15:10;;;;;;;42.90;25.65;;;;;;;18.15;48.67;97489.75;5140749;27;20069;-82
2023/12/26 08:17:36;;;;;;;55.85;29.02;;;;;;;18.21;47.45;97499.19;5132127;27;20494;-83
2023/12/26 08:20:03;;;;;;;47.85;26.85;;;;;;;18.14;47.47;97490.78;5133632;27;20027;-84
2023/12/26 08:22:29;;;;;;;47.55;25.58;;;;;;;18.87;46.40;97476.53;5114331;27;20030;-80
2023/12/26 08:24:55;;;;;;;51.47;26.27;;;;;;;19.14;45.94;97480.25;5128991;27;20019;-81
2023/12/26 08:27:22;;;;;;;45.88;23.15;;;;;;;19.08;45.59;97481.72;5131162;27;20054;-82
2023/12/26 08:29:49;;;;;;;38.17;21.23;;;;;;;19.36;44.63;97479.88;5115000;27;20035;-79
2023/12/26 08:32:15;;;;;;;61.95;31.65;;;;;;;18.81;44.89;97474.41;5111253;27;20514;-77
2023/12/26 08:34:44;;;;;;;51.30;27.88;;;;;;;19.28;44.82;97483.34;5110185;27;20126;-75
2023/12/26 08:37:11;;;;;;;61.35;34.88;;;;;;;19.99;43.17;97484.34;5113763;27;20118;-77
2023/12/26 08:39:36;;;;;;;64.40;32.03;;;;;;;20.40;42.39;97472.00;5114657;27;20045;-76
2023/12/26 08:42:02;;;;;;;54.45;31.10;;;;;;;20.32;42.65;97471.09;5113727;27;20023;-73
2023/12/26 08:44:28;;;;;;;63.95;33.33;;;;;;;20.69;41.56;97462.69;5132278;27;20019;-76
2023/12/26 08:46:53;;;;;;;57.65;32.15;;;;;;;20.85;41.53;97471.84;5131578;27;20118;-76
2023/12/26 08:49:19;;;;;;;61.35;34.58;;;;;;;21.46;40.00;97466.22;5113538;27;20038;-79
2023/12/26 08:51:46;;;;;;;65.68;34.83;;;;;;;21.57;39.58;97462.31;5132166;27;20068;-77
2023/12/26 08:54:12;;;;;;;68.43;41.08;;;;;;;21.46;39.88;97462.63;5134429;27;20039;-77
2023/12/26 08:56:41;;;;;;;77.47;42.00;;;;;;;21.04;40.95;97477.00;5152813;27;20478;-77
2023/12/26 08:59:07;;;;;;;78.63;43.90;;;;;;;21.54;40.00;97462.66;5131519;27;20046;-78
2023/12/26 09:01:35;;;;;;;76.40;41.72;;;;;;;21.45;40.61;97452.75;5126303;27;20462;-79
2023/12/26 09:04:04;;;;;;;69.25;39.15;;;;;;;21.97;39.70;97462.44;5131649;27;20027;-78
2023/12/26 09:06:29;;;;;;;56.60;31.30;;;;;;;22.80;37.63;97443.19;5131641;27;20044;-79
2023/12/26 09:08:55;;;;;;;68.88;37.67;;;;;;;22.92;37.86;97442.66;5129066;27;20042;-78
2023/12/26 09:11:20;;;;;;;64.05;38.00;;;;;;;22.74;37.60;97436.56;5131406;27;20513;-78
2023/12/26 09:13:46;;;;;;;55.90;33.40;;;;;;;23.61;36.19;97435.59;5134290;27;20045;-78
2023/12/26 09:16:12;;;;;;;49.45;29.35;;;;;;;23.44;35.64;97434.00;5152056;27;20058;-78
2023/12/26 09:18:39;;;;;;;53.10;31.45;;;;;;;23.92;35.83;97430.97;5152450;27;20019;-78
2023/12/26 09:21:05;;;;;;;55.42;32.38;;;;;;;24.23;35.24;97423.59;5133669;27;20030;-78
2023/12/26 09:23:31;;;;;;;53.22;31.73;;;;;;;24.85;34.68;97412.47;5127360;27;20402;-80
2023/12/26 09:25:56;;;;;;;55.05;32.28;;;;;;;25.24;34.02;97409.44;5133497;27;20039;-80
2023/12/26 09:28:22;;;;;;;50.58;31.98;;;;;;;25.53;33.21;97394.88;5130745;27;20022;-81
2023/12/26 09:30:48;;;;;;;50.47;29.50;;;;;;;26.46;32.44;97384.69;5130547;27;20022;-80
2023/12/26 09:33:14;;;;;;;34.42;20.65;;;;;;;26.58;31.92;97382.28;5122534;27;20074;-79
2023/12/26 09:35:40;;;;;;;24.20;15.05;;;;;;;26.12;31.81;97382.66;5133086;27;20462;-73
2023/12/26 09:38:05;;;;;;;28.02;13.90;;;;;;;25.23;32.72;97381.19;5133167;27;20109;-74
2023/12/26 09:40:31;;;;;;;24.98;13.75;;;;;;;22.49;36.67;97394.81;5151781;27;20466;-78
2023/12/26 09:43:02;;;;;;;30.27;18.00;;;;;;;22.68;41.56;97418.16;5127891;27;20109;-80
2023/12/26 09:45:28;;;;;;;28.58;16.42;;;;;;;22.54;40.62;97402.50;5116166;27;20019;-77
2023/12/26 09:47:54;;;;;;;30.30;17.35;;;;;;;23.45;44.59;97419.28;5133258;27;20391;-78
2023/12/26 09:50:21;;;;;;;33.03;17.23;;;;;;;23.73;40.92;97404.97;5133149;27;21128;-79
2023/12/26 09:52:56;;;;;;;34.25;18.83;;;;;;;24.36;48.21;97433.94;5127530;27;20023;-74
2023/12/26 09:55:22;;;;;;;34.40;20.13;;;;;;;24.99;38.15;97400.66;5124561;27;20482;-75
2023/12/26 09:57:48;;;;;;;43.85;23.25;;;;;;;24.58;43.86;97408.41;5130733;27;20034;-74
2023/12/26 10:00:14;;;;;;;36.42;22.05;;;;;;;25.41;37.90;97385.44;5120202;27;20027;-74
2023/12/26 10:02:42;;;;;;;39.33;20.60;;;;;;;24.73;36.36;97370.16;5131474;27;20026;-74
2023/12/26 10:05:07;;;;;;;32.20;19.17;;;;;;;25.00;41.23;97388.69;5151010;27;20031;-75
2023/12/26 10:07:33;;;;;;;32.88;19.95;;;;;;;25.46;37.18;97369.25;5115092;27;20043;-74
2023/12/26 10:09:59;;;;;;;28.85;17.13;;;;;;;25.55;38.37;97373.63;5112126;27;20037;-76
2023/12/26 10:12:29;;;;;;;30.15;18.35;;;;;;;26.15;36.04;97360.34;5101008;28;20096;-75
2023/12/26 10:15:03;;;;;;;38.25;19.50;;;;;;;26.59;33.58;97351.88;5091508;28;20471;-75
2023/12/26 10:17:29;;;;;;;35.03;20.95;;;;;;;26.91;34.00;97347.69;5091478;28;20096;-74
2023/12/26 10:19:58;;;;;;;41.08;21.02;;;;;;;26.57;35.26;97343.00;5110109;28;20024;-74
2023/12/26 10:22:25;;;;;;;39.95;21.48;;;;;;;26.53;32.37;97324.38;5091373;28;20035;-76
2023/12/26 10:24:51;;;;;;;29.90;18.45;;;;;;;25.91;32.53;97319.59;5074414;28;20027;-75
2023/12/26 10:27:16;;;;;;;42.20;21.88;;;;;;;25.82;32.13;97310.69;5091356;28;20027;-75
2023/12/26 10:29:58;;;;;;;42.88;25.70;;;;;;;26.80;31.36;97313.41;5091489;28;20038;-75
2023/12/26 10:32:25;;;;;;;;;;;;;;;26.64;31.43;97310.94;5098888;27;20035;-76
2023/12/26 10:34:54;;;;;;;42.55;23.40;;;;;;;27.12;30.73;97305.53;5129880;27;20279;-74
2023/12/26 10:37:24;;;;;;;50.83;27.55;;;;;;;27.66;30.55;97300.88;5111362;27;20023;-76
2023/12/26 10:39:51;;;;;;;50.90;28.30;;;;;;;27.49;30.19;97295.97;5129832;27;20030;-75
2023/12/26 10:42:17;;;;;;;46.30;27.08;;;;;;;27.64;30.59;97288.41;5111395;27;20031;-73
2023/12/26 10:44:58;;;;;;;49.85;28.48;;;;;;;28.64;29.61;97277.25;5094357;27;20031;-76
2023/12/26 10:47:27;;;;;;;53.33;29.92;;;;;;;28.96;29.42;97282.69;5129336;27;20039;-74
2023/12/26 10:49:56;;;;;;;63.25;28.77;;;;;;;28.89;29.49;97275.47;5129643;27;20048;-75
2023/12/26 10:52:22;;;;;;;50.10;27.17;;;;;;;28.86;29.30;97275.91;5112137;27;20027;-75
2023/12/26 10:54:49;;;;;;;46.22;21.17;;;;;;;28.64;30.09;97282.75;5090663;28;20035;-76
2023/12/26 10:57:16;;;;;;;50.20;28.67;;;;;;;27.51;31.70;97293.88;5095572;27;20081;-74
2023/12/26 13:53:04;;;;;;;8.85;4.60;;;;;;;24.56;27.65;97168.91;5151469;27;20042;-75
2023/12/26 13:56:08;;;;;;;15.38;5.65;;;;;;;24.30;28.01;97163.13;5150179;27;20081;-75
2023/12/26 13:59:11;;;;;;;14.57;8.20;;;;;;;24.12;28.10;97175.28;5154304;27;20110;-74
2023/12/26 14:02:13;;;;;;;22.10;12.82;;;;;;;23.48;28.64;97162.25;5150621;27;20026;-75
2023/12/26 14:04:57;;;;;;;;;;;;;;;22.79;29.74;97175.06;5133725;27;20031;-75
2023/12/26 14:08:00;;;;;;;17.13;9.30;;;;;;;21.91;31.12;97171.66;5150157;27;19915;-75
2023/12/26 14:11:03;;;;;;;29.05;16.80;;;;;;;21.48;31.72;97163.88;5153670;27;20466;-74